sensor_id;sensor_type;location;lat;lon;timestamp;P1;durP1;ratioP1;P2;durP2;ratioP2
15261;SDS011;7733;51.554;13.590;2023-11-22T00:00:54;6.63;;;6.13;;
15261;SDS011;7733;51.554;13.590;2023-11-22T00:03:20;6.30;;;5.80;;
15261;SDS011;7733;51.554;13.590;2023-11-22T00:05:45;6.33;;;5.83;;
15261;SDS011;7733;51.554;13.590;2023-11-22T00:08:12;6.20;;;5.70;;
15261;SDS011;7733;51.554;13.590;2023-11-22T00:10:37;5.93;;;5.53;;
15261;SDS011;7733;51.554;13.590;2023-11-22T00:13:04;6.03;;;5.57;;
15261;SDS011;7733;51.554;13.590;2023-11-22T00:15:30;6.50;;;5.90;;
15261;SDS011;7733;51.554;13.590;2023-11-22T00:17:56;5.63;;;5.23;;
15261;SDS011;7733;51.554;13.590;2023-11-22T00:20:28;5.97;;;5.47;;
15261;SDS011;7733;51.554;13.590;2023-11-22T00:22:55;5.77;;;5.27;;
15261;SDS011;7733;51.554;13.590;2023-11-22T00:25:22;5.83;;;5.43;;
15261;SDS011;7733;51.554;13.590;2023-11-22T00:27:47;5.97;;;5.57;;
15261;SDS011;7733;51.554;13.590;2023-11-22T00:30:13;5.80;;;5.30;;
15261;SDS011;7733;51.554;13.590;2023-11-22T00:32:39;5.43;;;5.03;;
15261;SDS011;7733;51.554;13.590;2023-11-22T00:35:06;5.97;;;5.40;;
15261;SDS011;7733;51.554;13.590;2023-11-22T00:37:33;5.87;;;5.33;;
15261;SDS011;7733;51.554;13.590;2023-11-22T00:40:00;5.53;;;5.10;;
15261;SDS011;7733;51.554;13.590;2023-11-22T00:42:35;6.00;;;5.47;;
15261;SDS011;7733;51.554;13.590;2023-11-22T00:45:06;5.90;;;5.50;;
15261;SDS011;7733;51.554;13.590;2023-11-22T00:47:33;5.77;;;5.37;;
15261;SDS011;7733;51.554;13.590;2023-11-22T00:49:59;5.50;;;5.13;;
15261;SDS011;7733;51.554;13.590;2023-11-22T00:52:26;5.43;;;5.00;;
15261;SDS011;7733;51.554;13.590;2023-11-22T00:54:52;6.47;;;5.40;;
15261;SDS011;7733;51.554;13.590;2023-11-22T00:57:18;5.80;;;5.40;;
15261;SDS011;7733;51.554;13.590;2023-11-22T00:59:43;5.37;;;4.97;;
15261;SDS011;7733;51.554;13.590;2023-11-22T01:02:09;5.83;;;5.37;;
15261;SDS011;7733;51.554;13.590;2023-11-22T01:04:35;6.50;;;5.90;;
15261;SDS011;7733;51.554;13.590;2023-11-22T01:07:02;5.83;;;5.43;;
15261;SDS011;7733;51.554;13.590;2023-11-22T01:09:34;6.17;;;5.63;;
15261;SDS011;7733;51.554;13.590;2023-11-22T01:12:00;6.17;;;5.67;;
15261;SDS011;7733;51.554;13.590;2023-11-22T01:14:26;5.77;;;5.37;;
15261;SDS011;7733;51.554;13.590;2023-11-22T01:16:53;5.77;;;5.30;;
15261;SDS011;7733;51.554;13.590;2023-11-22T01:19:19;6.43;;;5.83;;
15261;SDS011;7733;51.554;13.590;2023-11-22T01:21:46;6.17;;;5.67;;
15261;SDS011;7733;51.554;13.590;2023-11-22T01:24:12;6.10;;;5.60;;
15261;SDS011;7733;51.554;13.590;2023-11-22T01:26:37;6.07;;;5.60;;
15261;SDS011;7733;51.554;13.590;2023-11-22T01:29:03;5.90;;;5.50;;
15261;SDS011;7733;51.554;13.590;2023-11-22T01:31:30;6.43;;;5.93;;
15261;SDS011;7733;51.554;13.590;2023-11-22T01:33:57;6.07;;;5.63;;
15261;SDS011;7733;51.554;13.590;2023-11-22T01:36:25;6.57;;;6.07;;
15261;SDS011;7733;51.554;13.590;2023-11-22T01:38:52;6.63;;;6.03;;
15261;SDS011;7733;51.554;13.590;2023-11-22T01:41:18;6.53;;;5.90;;
15261;SDS011;7733;51.554;13.590;2023-11-22T01:43:44;6.50;;;5.90;;
15261;SDS011;7733;51.554;13.590;2023-11-22T01:46:19;6.30;;;5.80;;
15261;SDS011;7733;51.554;13.590;2023-11-22T01:48:50;6.93;;;6.33;;
15261;SDS011;7733;51.554;13.590;2023-11-22T01:51:22;6.70;;;6.10;;
15261;SDS011;7733;51.554;13.590;2023-11-22T01:53:50;6.77;;;6.27;;
15261;SDS011;7733;51.554;13.590;2023-11-22T01:56:20;6.47;;;5.87;;
15261;SDS011;7733;51.554;13.590;2023-11-22T01:58:47;6.63;;;6.13;;
15261;SDS011;7733;51.554;13.590;2023-11-22T02:01:14;6.87;;;6.27;;
15261;SDS011;7733;51.554;13.590;2023-11-22T02:03:41;6.27;;;5.77;;
15261;SDS011;7733;51.554;13.590;2023-11-22T02:06:07;6.67;;;6.07;;
15261;SDS011;7733;51.554;13.590;2023-11-22T02:08:36;6.93;;;6.30;;
15261;SDS011;7733;51.554;13.590;2023-11-22T02:11:02;6.53;;;5.80;;
15261;SDS011;7733;51.554;13.590;2023-11-22T02:13:31;6.70;;;6.10;;
15261;SDS011;7733;51.554;13.590;2023-11-22T02:15:57;6.40;;;5.90;;
15261;SDS011;7733;51.554;13.590;2023-11-22T02:18:27;6.70;;;6.20;;
15261;SDS011;7733;51.554;13.590;2023-11-22T02:20:53;6.70;;;6.10;;
15261;SDS011;7733;51.554;13.590;2023-11-22T02:23:19;6.17;;;5.67;;
15261;SDS011;7733;51.554;13.590;2023-11-22T02:25:44;6.93;;;6.30;;
15261;SDS011;7733;51.554;13.590;2023-11-22T02:28:13;6.90;;;6.30;;
15261;SDS011;7733;51.554;13.590;2023-11-22T02:30:39;6.80;;;6.20;;
15261;SDS011;7733;51.554;13.590;2023-11-22T02:33:05;6.60;;;6.00;;
15261;SDS011;7733;51.554;13.590;2023-11-22T02:35:31;6.20;;;5.77;;
15261;SDS011;7733;51.554;13.590;2023-11-22T02:37:58;6.80;;;5.80;;
15261;SDS011;7733;51.554;13.590;2023-11-22T02:40:24;6.73;;;6.13;;
15261;SDS011;7733;51.554;13.590;2023-11-22T02:42:51;6.60;;;5.90;;
15261;SDS011;7733;51.554;13.590;2023-11-22T02:45:19;7.17;;;6.47;;
15261;SDS011;7733;51.554;13.590;2023-11-22T02:47:50;6.47;;;5.87;;
15261;SDS011;7733;51.554;13.590;2023-11-22T02:50:17;6.70;;;6.10;;
15261;SDS011;7733;51.554;13.590;2023-11-22T02:52:43;6.30;;;5.70;;
15261;SDS011;7733;51.554;13.590;2023-11-22T02:55:09;6.40;;;5.90;;
15261;SDS011;7733;51.554;13.590;2023-11-22T02:57:35;6.73;;;6.17;;
15261;SDS011;7733;51.554;13.590;2023-11-22T03:00:07;7.33;;;6.63;;
15261;SDS011;7733;51.554;13.590;2023-11-22T03:02:41;6.33;;;5.83;;
15261;SDS011;7733;51.554;13.590;2023-11-22T03:05:07;7.27;;;6.57;;
15261;SDS011;7733;51.554;13.590;2023-11-22T03:07:37;6.77;;;6.17;;
15261;SDS011;7733;51.554;13.590;2023-11-22T03:10:03;6.70;;;6.10;;
15261;SDS011;7733;51.554;13.590;2023-11-22T03:12:32;6.47;;;6.03;;
15261;SDS011;7733;51.554;13.590;2023-11-22T03:14:58;6.70;;;6.10;;
15261;SDS011;7733;51.554;13.590;2023-11-22T03:17:27;6.33;;;5.83;;
15261;SDS011;7733;51.554;13.590;2023-11-22T03:19:53;7.40;;;6.70;;
15261;SDS011;7733;51.554;13.590;2023-11-22T03:22:26;7.83;;;6.73;;
15261;SDS011;7733;51.554;13.590;2023-11-22T03:24:55;6.90;;;6.20;;
15261;SDS011;7733;51.554;13.590;2023-11-22T03:27:21;7.17;;;6.60;;
15261;SDS011;7733;51.554;13.590;2023-11-22T03:29:48;7.97;;;6.63;;
15261;SDS011;7733;51.554;13.590;2023-11-22T03:32:14;6.80;;;6.20;;
15261;SDS011;7733;51.554;13.590;2023-11-22T03:34:40;7.60;;;6.90;;
15261;SDS011;7733;51.554;13.590;2023-11-22T03:37:06;7.40;;;6.70;;
15261;SDS011;7733;51.554;13.590;2023-11-22T03:39:32;6.80;;;6.20;;
15261;SDS011;7733;51.554;13.590;2023-11-22T03:41:58;9.23;;;6.57;;
15261;SDS011;7733;51.554;13.590;2023-11-22T03:44:23;6.80;;;6.20;;
15261;SDS011;7733;51.554;13.590;2023-11-22T03:46:49;11.17;;;6.60;;
15261;SDS011;7733;51.554;13.590;2023-11-22T03:49:15;7.23;;;6.63;;
15261;SDS011;7733;51.554;13.590;2023-11-22T03:51:41;7.03;;;6.43;;
15261;SDS011;7733;51.554;13.590;2023-11-22T03:54:08;7.57;;;6.83;;
15261;SDS011;7733;51.554;13.590;2023-11-22T03:56:35;7.07;;;6.37;;
15261;SDS011;7733;51.554;13.590;2023-11-22T03:59:01;7.73;;;7.10;;
15261;SDS011;7733;51.554;13.590;2023-11-22T04:01:28;7.37;;;6.67;;
15261;SDS011;7733;51.554;13.590;2023-11-22T04:03:54;7.60;;;6.90;;
15261;SDS011;7733;51.554;13.590;2023-11-22T04:06:20;7.60;;;6.97;;
15261;SDS011;7733;51.554;13.590;2023-11-22T04:08:46;8.03;;;7.27;;
15261;SDS011;7733;51.554;13.590;2023-11-22T04:11:12;10.27;;;9.30;;
15261;SDS011;7733;51.554;13.590;2023-11-22T04:13:38;9.00;;;7.50;;
15261;SDS011;7733;51.554;13.590;2023-11-22T04:16:05;7.43;;;6.67;;
15261;SDS011;7733;51.554;13.590;2023-11-22T04:18:34;8.30;;;7.23;;
15261;SDS011;7733;51.554;13.590;2023-11-22T04:21:01;7.37;;;6.63;;
15261;SDS011;7733;51.554;13.590;2023-11-22T04:23:29;7.47;;;6.77;;
15261;SDS011;7733;51.554;13.590;2023-11-22T04:25:59;7.57;;;6.97;;
15261;SDS011;7733;51.554;13.590;2023-11-22T04:28:26;7.87;;;7.03;;
15261;SDS011;7733;51.554;13.590;2023-11-22T04:30:55;8.67;;;7.83;;
15261;SDS011;7733;51.554;13.590;2023-11-22T04:33:22;12.03;;;7.80;;
15261;SDS011;7733;51.554;13.590;2023-11-22T04:35:48;9.10;;;8.40;;
15261;SDS011;7733;51.554;13.590;2023-11-22T04:38:16;9.40;;;8.60;;
15261;SDS011;7733;51.554;13.590;2023-11-22T04:40:42;9.63;;;8.73;;
15261;SDS011;7733;51.554;13.590;2023-11-22T04:43:09;9.30;;;8.43;;
15261;SDS011;7733;51.554;13.590;2023-11-22T04:45:35;9.93;;;8.93;;
15261;SDS011;7733;51.554;13.590;2023-11-22T04:48:01;10.00;;;9.10;;
15261;SDS011;7733;51.554;13.590;2023-11-22T04:50:27;9.93;;;9.03;;
15261;SDS011;7733;51.554;13.590;2023-11-22T04:52:52;9.47;;;8.63;;
15261;SDS011;7733;51.554;13.590;2023-11-22T04:55:18;9.10;;;8.30;;
15261;SDS011;7733;51.554;13.590;2023-11-22T04:57:45;9.43;;;8.53;;
15261;SDS011;7733;51.554;13.590;2023-11-22T05:00:11;9.70;;;8.70;;
15261;SDS011;7733;51.554;13.590;2023-11-22T05:02:37;9.23;;;8.27;;
15261;SDS011;7733;51.554;13.590;2023-11-22T05:05:05;9.40;;;8.50;;
15261;SDS011;7733;51.554;13.590;2023-11-22T05:07:32;9.03;;;8.13;;
15261;SDS011;7733;51.554;13.590;2023-11-22T05:09:57;9.30;;;8.40;;
15261;SDS011;7733;51.554;13.590;2023-11-22T05:12:23;10.47;;;9.47;;
15261;SDS011;7733;51.554;13.590;2023-11-22T05:14:49;9.43;;;8.53;;
15261;SDS011;7733;51.554;13.590;2023-11-22T05:17:15;9.67;;;8.87;;
15261;SDS011;7733;51.554;13.590;2023-11-22T05:19:41;10.63;;;9.63;;
15261;SDS011;7733;51.554;13.590;2023-11-22T05:22:06;10.50;;;9.50;;
15261;SDS011;7733;51.554;13.590;2023-11-22T05:24:32;10.27;;;9.30;;
15261;SDS011;7733;51.554;13.590;2023-11-22T05:27:00;10.90;;;9.80;;
15261;SDS011;7733;51.554;13.590;2023-11-22T05:29:27;9.93;;;9.03;;
15261;SDS011;7733;51.554;13.590;2023-11-22T05:31:52;10.17;;;9.27;;
15261;SDS011;7733;51.554;13.590;2023-11-22T05:34:18;10.33;;;9.33;;
15261;SDS011;7733;51.554;13.590;2023-11-22T05:36:44;10.20;;;9.20;;
15261;SDS011;7733;51.554;13.590;2023-11-22T05:39:10;10.53;;;9.50;;
15261;SDS011;7733;51.554;13.590;2023-11-22T05:41:37;17.33;;;15.47;;
15261;SDS011;7733;51.554;13.590;2023-11-22T05:44:03;18.13;;;16.23;;
15261;SDS011;7733;51.554;13.590;2023-11-22T05:46:29;18.17;;;15.63;;
15261;SDS011;7733;51.554;13.590;2023-11-22T05:48:55;22.37;;;17.60;;
15261;SDS011;7733;51.554;13.590;2023-11-22T05:51:20;20.83;;;15.77;;
15261;SDS011;7733;51.554;13.590;2023-11-22T05:53:47;13.60;;;11.63;;
15261;SDS011;7733;51.554;13.590;2023-11-22T05:56:12;18.17;;;15.10;;
15261;SDS011;7733;51.554;13.590;2023-11-22T05:58:40;10.63;;;9.60;;
15261;SDS011;7733;51.554;13.590;2023-11-22T06:01:06;12.17;;;10.77;;
15261;SDS011;7733;51.554;13.590;2023-11-22T06:03:32;11.80;;;10.60;;
15261;SDS011;7733;51.554;13.590;2023-11-22T06:06:00;19.17;;;15.93;;
15261;SDS011;7733;51.554;13.590;2023-11-22T06:08:26;15.73;;;13.83;;
15261;SDS011;7733;51.554;13.590;2023-11-22T06:10:52;12.10;;;10.87;;
15261;SDS011;7733;51.554;13.590;2023-11-22T06:13:18;12.53;;;11.30;;
15261;SDS011;7733;51.554;13.590;2023-11-22T06:15:44;12.63;;;11.43;;
15261;SDS011;7733;51.554;13.590;2023-11-22T06:18:10;12.37;;;11.07;;
15261;SDS011;7733;51.554;13.590;2023-11-22T06:20:39;11.30;;;10.20;;
15261;SDS011;7733;51.554;13.590;2023-11-22T06:23:05;11.27;;;10.17;;
15261;SDS011;7733;51.554;13.590;2023-11-22T06:25:31;12.30;;;11.10;;
15261;SDS011;7733;51.554;13.590;2023-11-22T06:27:57;14.87;;;12.50;;
15261;SDS011;7733;51.554;13.590;2023-11-22T06:30:23;11.50;;;10.40;;
15261;SDS011;7733;51.554;13.590;2023-11-22T06:32:50;13.80;;;12.00;;
15261;SDS011;7733;51.554;13.590;2023-11-22T06:35:16;12.50;;;10.93;;
15261;SDS011;7733;51.554;13.590;2023-11-22T06:37:43;16.00;;;13.57;;
15261;SDS011;7733;51.554;13.590;2023-11-22T06:40:09;17.33;;;14.30;;
15261;SDS011;7733;51.554;13.590;2023-11-22T06:42:42;22.77;;;17.63;;
15261;SDS011;7733;51.554;13.590;2023-11-22T06:45:08;13.40;;;11.80;;
15261;SDS011;7733;51.554;13.590;2023-11-22T06:47:38;12.07;;;10.90;;
15261;SDS011;7733;51.554;13.590;2023-11-22T06:50:05;11.77;;;10.67;;
15261;SDS011;7733;51.554;13.590;2023-11-22T06:52:34;12.43;;;11.10;;
15261;SDS011;7733;51.554;13.590;2023-11-22T06:55:02;12.50;;;10.00;;
15261;SDS011;7733;51.554;13.590;2023-11-22T06:57:28;11.83;;;10.63;;
15261;SDS011;7733;51.554;13.590;2023-11-22T06:59:54;11.90;;;10.70;;
15261;SDS011;7733;51.554;13.590;2023-11-22T07:02:23;12.43;;;11.13;;
15261;SDS011;7733;51.554;13.590;2023-11-22T07:04:49;12.40;;;11.17;;
15261;SDS011;7733;51.554;13.590;2023-11-22T07:07:15;11.43;;;10.30;;
15261;SDS011;7733;51.554;13.590;2023-11-22T07:09:44;12.30;;;11.10;;
15261;SDS011;7733;51.554;13.590;2023-11-22T07:12:11;12.57;;;11.30;;
15261;SDS011;7733;51.554;13.590;2023-11-22T07:14:36;11.27;;;10.13;;
15261;SDS011;7733;51.554;13.590;2023-11-22T07:17:03;11.63;;;10.43;;
15261;SDS011;7733;51.554;13.590;2023-11-22T07:19:31;10.73;;;9.63;;
15261;SDS011;7733;51.554;13.590;2023-11-22T07:22:02;9.57;;;8.70;;
15261;SDS011;7733;51.554;13.590;2023-11-22T07:24:35;9.33;;;8.37;;
15261;SDS011;7733;51.554;13.590;2023-11-22T07:27:01;9.30;;;8.40;;
15261;SDS011;7733;51.554;13.590;2023-11-22T07:29:27;8.80;;;7.90;;
15261;SDS011;7733;51.554;13.590;2023-11-22T07:31:54;10.67;;;9.30;;
15261;SDS011;7733;51.554;13.590;2023-11-22T07:34:22;10.03;;;9.03;;
15261;SDS011;7733;51.554;13.590;2023-11-22T07:36:48;10.93;;;9.20;;
15261;SDS011;7733;51.554;13.590;2023-11-22T07:39:15;10.67;;;9.60;;
15261;SDS011;7733;51.554;13.590;2023-11-22T07:41:44;11.10;;;9.17;;
15261;SDS011;7733;51.554;13.590;2023-11-22T07:44:10;10.63;;;9.53;;
15261;SDS011;7733;51.554;13.590;2023-11-22T07:46:36;10.90;;;9.27;;
15261;SDS011;7733;51.554;13.590;2023-11-22T07:49:02;9.87;;;8.83;;
15261;SDS011;7733;51.554;13.590;2023-11-22T07:51:28;10.43;;;9.37;;
15261;SDS011;7733;51.554;13.590;2023-11-22T07:53:54;10.03;;;9.03;;
15261;SDS011;7733;51.554;13.590;2023-11-22T07:56:20;11.43;;;9.00;;
15261;SDS011;7733;51.554;13.590;2023-11-22T07:58:46;9.03;;;8.13;;
15261;SDS011;7733;51.554;13.590;2023-11-22T08:01:12;9.00;;;8.20;;
15261;SDS011;7733;51.554;13.590;2023-11-22T08:03:39;8.27;;;7.50;;
15261;SDS011;7733;51.554;13.590;2023-11-22T08:06:10;8.27;;;7.57;;
15261;SDS011;7733;51.554;13.590;2023-11-22T08:08:36;9.37;;;8.37;;
15261;SDS011;7733;51.554;13.590;2023-11-22T08:11:05;8.60;;;7.80;;
15261;SDS011;7733;51.554;13.590;2023-11-22T08:13:40;9.17;;;8.23;;
15261;SDS011;7733;51.554;13.590;2023-11-22T08:16:08;8.63;;;7.83;;
15261;SDS011;7733;51.554;13.590;2023-11-22T08:18:34;8.47;;;7.77;;
15261;SDS011;7733;51.554;13.590;2023-11-22T08:21:00;9.00;;;8.10;;
15261;SDS011;7733;51.554;13.590;2023-11-22T08:23:26;8.57;;;7.77;;
15261;SDS011;7733;51.554;13.590;2023-11-22T08:25:55;8.43;;;7.67;;
15261;SDS011;7733;51.554;13.590;2023-11-22T08:28:22;9.43;;;8.50;;
15261;SDS011;7733;51.554;13.590;2023-11-22T08:30:47;8.60;;;7.80;;
15261;SDS011;7733;51.554;13.590;2023-11-22T08:33:13;8.63;;;7.83;;
15261;SDS011;7733;51.554;13.590;2023-11-22T08:35:39;8.23;;;7.53;;
15261;SDS011;7733;51.554;13.590;2023-11-22T08:38:06;8.83;;;8.03;;
15261;SDS011;7733;51.554;13.590;2023-11-22T08:40:34;8.03;;;7.33;;
15261;SDS011;7733;51.554;13.590;2023-11-22T08:43:02;8.73;;;7.93;;
15261;SDS011;7733;51.554;13.590;2023-11-22T08:45:29;8.73;;;7.93;;
15261;SDS011;7733;51.554;13.590;2023-11-22T08:47:56;9.20;;;8.30;;
15261;SDS011;7733;51.554;13.590;2023-11-22T08:50:23;10.60;;;9.60;;
15261;SDS011;7733;51.554;13.590;2023-11-22T08:52:49;8.90;;;8.10;;
15261;SDS011;7733;51.554;13.590;2023-11-22T08:55:18;11.00;;;9.77;;
15261;SDS011;7733;51.554;13.590;2023-11-22T08:57:49;11.37;;;10.17;;
15261;SDS011;7733;51.554;13.590;2023-11-22T09:00:18;10.43;;;9.30;;
15261;SDS011;7733;51.554;13.590;2023-11-22T09:02:53;9.70;;;8.90;;
15261;SDS011;7733;51.554;13.590;2023-11-22T09:05:22;10.90;;;9.80;;
15261;SDS011;7733;51.554;13.590;2023-11-22T09:07:48;11.27;;;9.03;;
15261;SDS011;7733;51.554;13.590;2023-11-22T09:10:15;9.20;;;8.40;;
15261;SDS011;7733;51.554;13.590;2023-11-22T09:12:43;14.10;;;12.33;;
15261;SDS011;7733;51.554;13.590;2023-11-22T09:15:10;12.20;;;10.53;;
15261;SDS011;7733;51.554;13.590;2023-11-22T09:17:42;10.33;;;9.20;;
15261;SDS011;7733;51.554;13.590;2023-11-22T09:20:09;11.93;;;10.73;;
15261;SDS011;7733;51.554;13.590;2023-11-22T09:22:46;11.63;;;10.37;;
15261;SDS011;7733;51.554;13.590;2023-11-22T09:25:18;10.17;;;9.13;;
15261;SDS011;7733;51.554;13.590;2023-11-22T09:27:52;10.50;;;9.30;;
15261;SDS011;7733;51.554;13.590;2023-11-22T09:30:21;10.03;;;8.60;;
15261;SDS011;7733;51.554;13.590;2023-11-22T09:33:07;9.30;;;8.47;;
15261;SDS011;7733;51.554;13.590;2023-11-22T09:35:36;9.40;;;8.60;;
15261;SDS011;7733;51.554;13.590;2023-11-22T09:38:03;9.73;;;8.83;;
15261;SDS011;7733;51.554;13.590;2023-11-22T09:40:41;9.37;;;8.47;;
15261;SDS011;7733;51.554;13.590;2023-11-22T09:43:10;10.03;;;9.03;;
15261;SDS011;7733;51.554;13.590;2023-11-22T09:45:42;9.63;;;8.73;;
15261;SDS011;7733;51.554;13.590;2023-11-22T09:48:16;9.47;;;8.67;;
15261;SDS011;7733;51.554;13.590;2023-11-22T09:56:08;9.27;;;8.30;;
15261;SDS011;7733;51.554;13.590;2023-11-22T09:58:39;8.67;;;7.80;;
15261;SDS011;7733;51.554;13.590;2023-11-22T10:01:13;8.77;;;7.93;;
15261;SDS011;7733;51.554;13.590;2023-11-22T10:03:39;8.73;;;7.93;;
15261;SDS011;7733;51.554;13.590;2023-11-22T10:06:06;8.90;;;8.00;;
15261;SDS011;7733;51.554;13.590;2023-11-22T10:08:32;9.13;;;8.33;;
15261;SDS011;7733;51.554;13.590;2023-11-22T10:11:00;9.53;;;8.63;;
15261;SDS011;7733;51.554;13.590;2023-11-22T10:13:26;8.67;;;7.97;;
15261;SDS011;7733;51.554;13.590;2023-11-22T10:15:52;9.43;;;8.57;;
15261;SDS011;7733;51.554;13.590;2023-11-22T10:18:19;9.17;;;8.37;;
15261;SDS011;7733;51.554;13.590;2023-11-22T10:20:47;9.10;;;8.30;;
15261;SDS011;7733;51.554;13.590;2023-11-22T10:23:17;8.87;;;8.07;;
15261;SDS011;7733;51.554;13.590;2023-11-22T10:25:49;8.67;;;7.87;;
15261;SDS011;7733;51.554;13.590;2023-11-22T10:28:21;8.90;;;8.10;;
15261;SDS011;7733;51.554;13.590;2023-11-22T10:30:51;8.13;;;7.33;;
15261;SDS011;7733;51.554;13.590;2023-11-22T10:33:17;7.97;;;7.30;;
15261;SDS011;7733;51.554;13.590;2023-11-22T10:35:46;8.30;;;7.50;;
15261;SDS011;7733;51.554;13.590;2023-11-22T10:38:14;8.17;;;7.47;;
15261;SDS011;7733;51.554;13.590;2023-11-22T10:40:42;8.13;;;7.40;;
15261;SDS011;7733;51.554;13.590;2023-11-22T10:43:11;8.30;;;7.53;;
15261;SDS011;7733;51.554;13.590;2023-11-22T10:45:37;8.30;;;7.60;;
15261;SDS011;7733;51.554;13.590;2023-11-22T10:48:04;9.23;;;8.33;;
15261;SDS011;7733;51.554;13.590;2023-11-22T10:50:34;8.20;;;7.50;;
15261;SDS011;7733;51.554;13.590;2023-11-22T10:52:59;8.83;;;7.23;;
15261;SDS011;7733;51.554;13.590;2023-11-22T10:55:35;8.60;;;7.80;;
15261;SDS011;7733;51.554;13.590;2023-11-22T10:58:16;7.37;;;6.77;;
15261;SDS011;7733;51.554;13.590;2023-11-22T11:00:43;7.70;;;7.10;;
15261;SDS011;7733;51.554;13.590;2023-11-22T11:03:13;8.17;;;7.47;;
15261;SDS011;7733;51.554;13.590;2023-11-22T11:05:45;7.10;;;6.60;;
15261;SDS011;7733;51.554;13.590;2023-11-22T11:08:22;7.90;;;6.80;;
15261;SDS011;7733;51.554;13.590;2023-11-22T11:10:52;7.47;;;6.87;;
15261;SDS011;7733;51.554;13.590;2023-11-22T11:13:21;8.07;;;7.27;;
15261;SDS011;7733;51.554;13.590;2023-11-22T11:15:48;7.47;;;6.87;;
15261;SDS011;7733;51.554;13.590;2023-11-22T11:18:17;8.17;;;7.47;;
15261;SDS011;7733;51.554;13.590;2023-11-22T11:20:54;8.13;;;7.43;;
15261;SDS011;7733;51.554;13.590;2023-11-22T11:23:23;6.80;;;6.23;;
15261;SDS011;7733;51.554;13.590;2023-11-22T11:25:56;7.83;;;7.23;;
15261;SDS011;7733;51.554;13.590;2023-11-22T11:28:41;8.80;;;8.00;;
15261;SDS011;7733;51.554;13.590;2023-11-22T11:31:09;9.10;;;8.20;;
15261;SDS011;7733;51.554;13.590;2023-11-22T11:33:52;19.47;;;16.43;;
15261;SDS011;7733;51.554;13.590;2023-11-22T11:36:25;8.40;;;7.60;;
15261;SDS011;7733;51.554;13.590;2023-11-22T11:38:57;8.30;;;7.50;;
15261;SDS011;7733;51.554;13.590;2023-11-22T11:41:27;7.77;;;7.00;;
15261;SDS011;7733;51.554;13.590;2023-11-22T11:44:03;8.30;;;7.60;;
15261;SDS011;7733;51.554;13.590;2023-11-22T11:46:34;7.50;;;6.80;;
15261;SDS011;7733;51.554;13.590;2023-11-22T11:49:03;7.93;;;7.13;;
15261;SDS011;7733;51.554;13.590;2023-11-22T11:51:35;8.33;;;7.53;;
15261;SDS011;7733;51.554;13.590;2023-11-22T11:54:02;7.63;;;7.03;;
15261;SDS011;7733;51.554;13.590;2023-11-22T11:56:29;7.70;;;7.00;;
15261;SDS011;7733;51.554;13.590;2023-11-22T11:58:57;7.30;;;6.70;;
15261;SDS011;7733;51.554;13.590;2023-11-22T12:01:27;7.30;;;6.80;;
15261;SDS011;7733;51.554;13.590;2023-11-22T12:04:00;7.40;;;6.70;;
15261;SDS011;7733;51.554;13.590;2023-11-22T12:06:28;8.17;;;7.37;;
15261;SDS011;7733;51.554;13.590;2023-11-22T12:08:56;7.53;;;6.80;;
15261;SDS011;7733;51.554;13.590;2023-11-22T12:11:23;7.40;;;6.80;;
15261;SDS011;7733;51.554;13.590;2023-11-22T12:13:48;7.80;;;7.03;;
15261;SDS011;7733;51.554;13.590;2023-11-22T12:16:17;7.20;;;6.70;;
15261;SDS011;7733;51.554;13.590;2023-11-22T12:18:43;7.97;;;7.27;;
15261;SDS011;7733;51.554;13.590;2023-11-22T12:21:12;7.33;;;6.73;;
15261;SDS011;7733;51.554;13.590;2023-11-22T12:23:40;7.03;;;6.43;;
15261;SDS011;7733;51.554;13.590;2023-11-22T12:26:14;7.80;;;7.10;;
15261;SDS011;7733;51.554;13.590;2023-11-22T12:28:45;7.00;;;6.30;;
15261;SDS011;7733;51.554;13.590;2023-11-22T12:31:14;7.50;;;6.83;;
15261;SDS011;7733;51.554;13.590;2023-11-22T12:33:41;7.60;;;6.90;;
15261;SDS011;7733;51.554;13.590;2023-11-22T12:36:08;8.60;;;7.70;;
15261;SDS011;7733;51.554;13.590;2023-11-22T12:38:36;7.60;;;7.00;;
15261;SDS011;7733;51.554;13.590;2023-11-22T12:41:02;6.43;;;5.93;;
15261;SDS011;7733;51.554;13.590;2023-11-22T12:43:31;7.20;;;6.60;;
15261;SDS011;7733;51.554;13.590;2023-11-22T12:45:58;7.33;;;6.67;;
15261;SDS011;7733;51.554;13.590;2023-11-22T12:48:32;7.03;;;6.43;;
15261;SDS011;7733;51.554;13.590;2023-11-22T12:50:59;7.20;;;6.50;;
15261;SDS011;7733;51.554;13.590;2023-11-22T12:53:25;7.20;;;6.60;;
15261;SDS011;7733;51.554;13.590;2023-11-22T12:55:55;7.40;;;6.80;;
15261;SDS011;7733;51.554;13.590;2023-11-22T12:58:22;9.80;;;6.67;;
15261;SDS011;7733;51.554;13.590;2023-11-22T13:00:51;8.60;;;7.80;;
15261;SDS011;7733;51.554;13.590;2023-11-22T13:03:23;7.30;;;6.70;;
15261;SDS011;7733;51.554;13.590;2023-11-22T13:05:50;7.77;;;6.97;;
15261;SDS011;7733;51.554;13.590;2023-11-22T13:08:20;9.37;;;8.47;;
15261;SDS011;7733;51.554;13.590;2023-11-22T13:10:47;8.13;;;7.33;;
15261;SDS011;7733;51.554;13.590;2023-11-22T13:13:22;7.30;;;6.60;;
15261;SDS011;7733;51.554;13.590;2023-11-22T13:15:50;7.17;;;6.50;;
15261;SDS011;7733;51.554;13.590;2023-11-22T13:18:16;7.20;;;6.53;;
15261;SDS011;7733;51.554;13.590;2023-11-22T13:20:44;7.33;;;6.73;;
15261;SDS011;7733;51.554;13.590;2023-11-22T13:23:10;7.27;;;6.67;;
15261;SDS011;7733;51.554;13.590;2023-11-22T13:25:38;7.13;;;6.53;;
15261;SDS011;7733;51.554;13.590;2023-11-22T13:28:06;7.17;;;6.47;;
15261;SDS011;7733;51.554;13.590;2023-11-22T13:30:33;7.50;;;6.80;;
15261;SDS011;7733;51.554;13.590;2023-11-22T13:33:00;8.10;;;7.30;;
15261;SDS011;7733;51.554;13.590;2023-11-22T13:35:26;6.87;;;6.37;;
15261;SDS011;7733;51.554;13.590;2023-11-22T13:37:56;7.47;;;6.87;;
15261;SDS011;7733;51.554;13.590;2023-11-22T13:40:27;8.53;;;7.63;;
15261;SDS011;7733;51.554;13.590;2023-11-22T13:42:56;26.30;;;19.83;;
15261;SDS011;7733;51.554;13.590;2023-11-22T13:45:23;22.30;;;17.67;;
15261;SDS011;7733;51.554;13.590;2023-11-22T13:47:50;21.50;;;19.03;;
15261;SDS011;7733;51.554;13.590;2023-11-22T13:50:22;11.83;;;10.77;;
15261;SDS011;7733;51.554;13.590;2023-11-22T13:52:49;8.37;;;7.67;;
15261;SDS011;7733;51.554;13.590;2023-11-22T13:55:16;16.83;;;15.23;;
15261;SDS011;7733;51.554;13.590;2023-11-22T13:57:47;9.80;;;8.90;;
15261;SDS011;7733;51.554;13.590;2023-11-22T14:00:15;8.43;;;7.20;;
15261;SDS011;7733;51.554;13.590;2023-11-22T14:02:50;7.73;;;7.03;;
15261;SDS011;7733;51.554;13.590;2023-11-22T14:05:21;7.00;;;6.40;;
15261;SDS011;7733;51.554;13.590;2023-11-22T14:07:47;6.80;;;6.30;;
15261;SDS011;7733;51.554;13.590;2023-11-22T14:10:13;9.07;;;6.90;;
15261;SDS011;7733;51.554;13.590;2023-11-22T14:12:41;7.70;;;6.90;;
15261;SDS011;7733;51.554;13.590;2023-11-22T14:15:09;7.37;;;6.67;;
15261;SDS011;7733;51.554;13.590;2023-11-22T14:17:36;7.63;;;7.03;;
15261;SDS011;7733;51.554;13.590;2023-11-22T14:20:06;7.13;;;6.50;;
15261;SDS011;7733;51.554;13.590;2023-11-22T14:22:34;7.13;;;6.43;;
15261;SDS011;7733;51.554;13.590;2023-11-22T14:25:01;8.47;;;7.73;;
15261;SDS011;7733;51.554;13.590;2023-11-22T14:27:27;9.40;;;8.57;;
15261;SDS011;7733;51.554;13.590;2023-11-22T14:29:55;9.30;;;8.50;;
15261;SDS011;7733;51.554;13.590;2023-11-22T14:32:22;7.90;;;7.20;;
15261;SDS011;7733;51.554;13.590;2023-11-22T14:34:48;11.47;;;9.80;;
15261;SDS011;7733;51.554;13.590;2023-11-22T14:37:13;23.77;;;19.87;;
15261;SDS011;7733;51.554;13.590;2023-11-22T14:39:40;9.60;;;8.60;;
15261;SDS011;7733;51.554;13.590;2023-11-22T14:42:07;7.87;;;7.17;;
15261;SDS011;7733;51.554;13.590;2023-11-22T14:44:35;8.33;;;7.53;;
15261;SDS011;7733;51.554;13.590;2023-11-22T14:47:02;7.13;;;6.60;;
15261;SDS011;7733;51.554;13.590;2023-11-22T14:49:34;7.80;;;7.10;;
15261;SDS011;7733;51.554;13.590;2023-11-22T14:52:00;7.70;;;7.00;;